Time;durP1;ratioP1;P1;durP2;ratioP2;P2;SDS_P1;SDS_P2;PMS_P1;PMS_P2;Temp;Humidity;BMP_temperature;BMP_pressure;BME280_temperature;BME280_humidity;BME280_pressure;Samples;Min_cycle;Max_cycle;Signal;HPM_P1;HPM_P2
2024/01/29 00:02:15;;;;;;;7.78;3.83;;;;;;;5.18;71.91;102254.91;5028023;28;20033;-81
2024/01/29 00:04:40;;;;;;;8.90;4.15;;;;;;;5.10;71.95;102252.78;5009400;28;20137;-80
2024/01/29 00:07:06;;;;;;;5.85;3.10;;;;;;;5.23;71.58;102250.34;5017215;28;20033;-80
2024/01/29 00:09:32;;;;;;;8.05;3.67;;;;;;;5.16;71.75;102249.03;4997505;28;20041;-80
2024/01/29 00:11:57;;;;;;;8.48;3.67;;;;;;;5.19;72.25;102247.13;5034237;28;20623;-81
2024/01/29 00:14:22;;;;;;;6.85;3.80;;;;;;;5.20;71.78;102255.69;4991061;28;20060;-77
2024/01/29 00:16:48;;;;;;;9.73;4.53;;;;;;;5.04;72.72;102250.56;5012900;28;20033;-79
2024/01/29 00:19:14;;;;;;;10.38;3.60;;;;;;;5.13;72.34;102251.78;4996106;28;20064;-80
2024/01/29 00:21:40;;;;;;;6.88;3.60;;;;;;;5.09;72.76;102253.72;5012298;28;20040;-79
2024/01/29 00:24:05;;;;;;;8.27;3.80;;;;;;;5.15;72.82;102255.09;5006545;28;20045;-81
2024/01/29 00:26:31;;;;;;;8.18;3.85;;;;;;;5.16;72.81;102255.03;5014485;28;20052;-80
2024/01/29 00:28:56;;;;;;;7.40;4.22;;;;;;;5.11;73.14;102251.88;4996969;28;20045;-81
2024/01/29 00:31:25;;;;;;;8.45;4.15;;;;;;;5.02;73.54;102252.38;4993347;28;20103;-80
2024/01/29 00:33:52;;;;;;;9.82;3.67;;;;;;;4.96;74.12;102256.13;5029537;28;22126;-81
2024/01/29 00:36:17;;;;;;;11.98;4.25;;;;;;;5.04;74.04;102242.84;5009050;28;20120;-80
2024/01/29 00:38:43;;;;;;;11.35;4.35;;;;;;;5.18;73.33;102245.47;5009788;28;20045;-79
2024/01/29 00:41:08;;;;;;;10.57;4.32;;;;;;;5.04;73.82;102245.41;5011170;28;20385;-79
2024/01/29 00:43:34;;;;;;;7.68;3.58;;;;;;;5.02;73.78;102242.91;4992924;28;20041;-80
2024/01/29 00:45:59;;;;;;;7.95;3.63;;;;;;;5.05;74.42;102244.50;5025812;28;20037;-80
2024/01/29 00:48:25;;;;;;;11.18;4.28;;;;;;;5.09;73.85;102250.31;4992488;28;20046;-81
2024/01/29 00:50:51;;;;;;;8.40;3.70;;;;;;;5.09;73.89;102256.28;5014261;28;20045;-81
2024/01/29 00:53:17;;;;;;;8.82;4.50;;;;;;;5.16;73.46;102239.59;5022536;28;20111;-81
2024/01/29 00:55:45;;;;;;;10.50;4.25;;;;;;;5.14;73.46;102238.00;5025550;28;20029;-81
2024/01/29 00:58:11;;;;;;;9.00;3.92;;;;;;;5.04;74.47;102246.22;5008369;28;20061;-81
2024/01/29 01:00:38;;;;;;;6.95;3.65;;;;;;;5.03;74.33;102251.47;4996136;28;20033;-80
2024/01/29 01:03:05;;;;;;;9.00;4.20;;;;;;;4.96;74.65;102253.53;5009469;28;20187;-80
2024/01/29 01:05:30;;;;;;;8.80;3.67;;;;;;;5.00;74.44;102251.63;5033823;28;20496;-81
2024/01/29 01:07:56;;;;;;;11.27;4.10;;;;;;;5.14;74.12;102258.59;5012386;28;20052;-79
2024/01/29 01:10:22;;;;;;;7.60;4.18;;;;;;;5.10;74.44;102255.34;5008246;28;20025;-80
2024/01/29 01:12:47;;;;;;;9.52;4.50;;;;;;;5.10;74.37;102245.06;5008596;28;20499;-81
2024/01/29 01:15:13;;;;;;;8.73;3.80;;;;;;;5.03;74.76;102252.31;5033496;28;20083;-79
2024/01/29 01:17:40;;;;;;;10.15;3.78;;;;;;;5.04;74.31;102248.81;5026025;28;20033;-79
2024/01/29 01:20:06;;;;;;;8.93;4.07;;;;;;;5.06;74.88;102251.28;5009509;28;20552;-80
2024/01/29 01:22:32;;;;;;;10.40;4.38;;;;;;;4.98;75.56;102248.31;5011613;28;20119;-80
2024/01/29 01:24:57;;;;;;;10.23;3.83;;;;;;;5.04;74.75;102256.50;4993616;28;20045;-79
2024/01/29 01:27:22;;;;;;;9.10;4.07;;;;;;;5.04;74.97;102251.38;5028632;28;20091;-76
2024/01/29 01:29:48;;;;;;;11.52;4.00;;;;;;;5.04;75.02;102255.69;5025789;28;20397;-79
2024/01/29 01:32:13;;;;;;;10.65;4.25;;;;;;;5.03;75.26;102254.06;5010006;28;20053;-80
2024/01/29 01:34:39;;;;;;;7.60;4.10;;;;;;;5.00;75.79;102254.22;5007279;28;20047;-82
2024/01/29 01:37:04;;;;;;;9.55;4.78;;;;;;;4.94;75.83;102250.22;5027807;28;20036;-79
2024/01/29 01:39:31;;;;;;;7.90;4.03;;;;;;;5.02;75.71;102257.53;5026185;28;20056;-79
2024/01/29 01:41:56;;;;;;;12.20;3.78;;;;;;;5.08;75.48;102257.16;4999388;28;20476;-81
2024/01/29 01:44:22;;;;;;;13.40;4.43;;;;;;;5.00;75.95;102265.31;5032545;28;20041;-79
2024/01/29 01:46:47;;;;;;;10.55;4.15;;;;;;;4.94;76.39;102259.69;4998193;28;20084;-80
2024/01/29 01:49:14;;;;;;;7.88;3.65;;;;;;;5.03;75.62;102264.34;5016202;28;20036;-80
2024/01/29 01:51:39;;;;;;;8.73;4.22;;;;;;;4.96;76.22;102263.81;5034599;28;20056;-81
2024/01/29 01:54:07;;;;;;;13.02;4.78;;;;;;;5.01;76.68;102266.13;5032056;28;20107;-80
2024/01/29 01:56:33;;;;;;;10.02;4.35;;;;;;;4.94;76.90;102267.41;5016760;28;20049;-81
2024/01/29 01:58:59;;;;;;;10.88;4.30;;;;;;;4.88;77.21;102278.84;5029956;28;20598;-80
2024/01/29 02:01:27;;;;;;;8.55;4.40;;;;;;;5.04;76.44;102271.13;4998639;28;20374;-80
2024/01/29 02:03:52;;;;;;;12.60;5.00;;;;;;;5.01;75.89;102266.13;5014533;28;20044;-80
2024/01/29 02:06:18;;;;;;;6.88;4.07;;;;;;;4.94;76.36;102265.66;5017753;28;20032;-79
2024/01/29 02:08:44;;;;;;;8.05;3.78;;;;;;;4.95;76.86;102269.88;5032336;28;20067;-80
2024/01/29 02:11:10;;;;;;;9.68;4.00;;;;;;;4.99;76.56;102267.97;5017693;28;20411;-81
2024/01/29 02:13:35;;;;;;;8.77;3.55;;;;;;;4.97;76.49;102265.50;5029546;28;20096;-81
2024/01/29 02:16:03;;;;;;;10.43;4.38;;;;;;;4.92;76.98;102271.81;5016661;28;20542;-81
2024/01/29 02:18:29;;;;;;;9.68;4.20;;;;;;;4.93;77.02;102273.44;5015162;28;20444;-81
2024/01/29 02:20:55;;;;;;;9.38;4.40;;;;;;;4.98;76.87;102280.00;4994284;28;20041;-80
2024/01/29 02:23:21;;;;;;;8.98;3.75;;;;;;;4.97;76.95;102287.78;5011971;28;20088;-79
2024/01/29 02:25:46;;;;;;;11.15;4.13;;;;;;;4.86;77.20;102281.50;4996241;28;20464;-78
2024/01/29 02:28:12;;;;;;;10.68;4.45;;;;;;;4.91;77.08;102288.13;5011938;28;20071;-79
2024/01/29 02:30:37;;;;;;;12.60;4.28;;;;;;;4.92;77.08;102282.09;5030994;28;20116;-79
2024/01/29 02:33:03;;;;;;;8.05;3.70;;;;;;;4.86;77.68;102278.09;5000552;28;20040;-79
2024/01/29 02:35:28;;;;;;;8.45;4.07;;;;;;;4.85;77.48;102279.81;5028709;28;20084;-80
2024/01/29 02:37:54;;;;;;;10.05;4.32;;;;;;;4.86;77.75;102278.09;5028903;28;20041;-79
2024/01/29 02:40:19;;;;;;;10.07;4.55;;;;;;;4.84;77.68;102275.59;5014302;28;20116;-81
2024/01/29 02:42:45;;;;;;;13.35;4.85;;;;;;;4.81;77.78;102270.63;5031927;28;20045;-79
2024/01/29 02:45:10;;;;;;;9.00;4.40;;;;;;;4.75;78.42;102283.00;4991883;28;20412;-80
2024/01/29 02:47:36;;;;;;;7.95;4.07;;;;;;;4.81;78.42;102275.75;5012612;28;20037;-81
2024/01/29 02:50:01;;;;;;;11.30;4.05;;;;;;;4.80;78.08;102276.69;5012295;28;20070;-80
2024/01/29 02:52:28;;;;;;;10.02;4.40;;;;;;;4.80;78.06;102278.41;4992151;28;20029;-79
2024/01/29 02:54:53;;;;;;;10.60;4.15;;;;;;;4.78;77.96;102281.06;5030675;28;20040;-80
2024/01/29 02:57:23;;;;;;;11.32;4.28;;;;;;;4.77;78.22;102279.41;5033799;28;20033;-79
2024/01/29 02:59:49;;;;;;;11.05;4.65;;;;;;;4.64;78.83;102286.13;5010942;28;20036;-80
2024/01/29 03:02:15;;;;;;;10.32;4.25;;;;;;;4.73;79.01;102275.34;5031321;28;20083;-79
2024/01/29 03:04:40;;;;;;;12.15;4.90;;;;;;;4.71;78.95;102279.75;5013800;28;20071;-82
2024/01/29 03:07:06;;;;;;;9.32;4.40;;;;;;;4.64;78.92;102280.97;5029659;28;20404;-80
2024/01/29 03:09:31;;;;;;;11.43;4.30;;;;;;;4.65;78.96;102277.47;5029551;28;20942;-80
2024/01/29 03:11:56;;;;;;;10.48;4.80;;;;;;;4.67;78.63;102279.09;5017502;28;20033;-79
2024/01/29 03:14:22;;;;;;;7.40;4.03;;;;;;;4.70;78.47;102277.25;5011354;28;21535;-79
2024/01/29 03:16:47;;;;;;;9.57;4.82;;;;;;;4.61;78.96;102278.56;5029599;28;20052;-78
2024/01/29 03:19:13;;;;;;;8.38;3.88;;;;;;;4.60;78.81;102274.34;4997838;28;20041;-80
2024/01/29 03:21:38;;;;;;;7.68;4.20;;;;;;;4.66;78.77;102271.44;5013888;28;20040;-81
2024/01/29 03:24:04;;;;;;;8.52;4.63;;;;;;;4.61;79.32;102265.72;4993142;28;20048;-80
2024/01/29 03:26:29;;;;;;;9.23;4.15;;;;;;;4.61;79.09;102268.28;5029962;28;20071;-78
2024/01/29 03:28:55;;;;;;;10.75;4.68;;;;;;;4.60;79.36;102261.50;5027065;28;20045;-78
2024/01/29 03:31:20;;;;;;;8.63;4.00;;;;;;;4.51;80.08;102264.56;5010117;28;20060;-80
2024/01/29 03:33:46;;;;;;;12.23;4.28;;;;;;;4.39;80.38;102258.28;4999662;28;20034;-78
2024/01/29 03:36:11;;;;;;;7.40;3.38;;;;;;;4.52;79.90;102251.63;4994536;28;20044;-80
2024/01/29 03:38:36;;;;;;;10.45;4.63;;;;;;;4.57;79.71;102252.19;5016432;28;20041;-79
2024/01/29 03:41:02;;;;;;;8.40;4.30;;;;;;;4.40;80.55;102255.66;5013393;28;20048;-78
2024/01/29 03:43:27;;;;;;;10.00;4.60;;;;;;;4.30;80.97;102254.50;5009344;28;20037;-81
2024/01/29 03:45:54;;;;;;;9.43;4.35;;;;;;;4.51;80.39;102252.53;5009241;28;20072;-81
2024/01/29 03:48:19;;;;;;;10.25;4.40;;;;;;;4.41;80.09;102257.31;5013241;28;20041;-80
2024/01/29 03:50:45;;;;;;;8.02;3.90;;;;;;;4.45;80.54;102263.13;5013589;28;20066;-81
2024/01/29 03:53:10;;;;;;;6.25;3.22;;;;;;;4.51;80.32;102262.81;4999040;28;20041;-80
2024/01/29 03:55:36;;;;;;;9.93;4.45;;;;;;;4.40;80.55;102253.09;5016193;28;20018;-79
2024/01/29 03:58:01;;;;;;;7.38;3.72;;;;;;;4.38;80.47;102259.22;5028043;28;20697;-79
2024/01/29 04:00:29;;;;;;;11.48;4.20;;;;;;;4.45;80.49;102245.97;4998355;28;20013;-81
2024/01/29 04:02:55;;;;;;;10.52;4.22;;;;;;;4.41;80.70;102259.91;5035076;28;20495;-79
2024/01/29 04:05:20;;;;;;;7.78;4.10;;;;;;;4.45;80.62;102266.53;5028026;28;20032;-80
2024/01/29 04:07:45;;;;;;;10.05;4.13;;;;;;;4.41;80.75;102261.66;4997070;28;20053;-80
2024/01/29 04:10:11;;;;;;;7.13;3.90;;;;;;;4.36;80.69;102264.44;5030031;28;20041;-80
2024/01/29 04:12:36;;;;;;;9.23;4.50;;;;;;;4.27;81.21;102257.19;4996457;28;20038;-78
2024/01/29 04:15:03;;;;;;;10.43;4.25;;;;;;;4.33;81.31;102262.00;5010713;28;20558;-81
2024/01/29 04:17:28;;;;;;;10.90;4.35;;;;;;;4.35;80.79;102267.94;5013213;28;20060;-80
2024/01/29 04:19:54;;;;;;;9.30;3.97;;;;;;;4.38;81.32;102265.19;5016335;28;20644;-81
2024/01/29 04:22:20;;;;;;;8.23;4.22;;;;;;;4.26;81.54;102270.97;5008775;28;20040;-81
2024/01/29 04:24:45;;;;;;;7.28;4.13;;;;;;;4.20;81.94;102273.81;4999181;28;20038;-82
2024/01/29 04:27:11;;;;;;;8.40;4.53;;;;;;;4.23;82.34;102277.06;5014812;28;20052;-80
2024/01/29 04:29:36;;;;;;;8.75;3.97;;;;;;;4.26;82.13;102276.94;5010303;28;20041;-80
2024/01/29 04:32:02;;;;;;;7.82;4.38;;;;;;;4.27;81.65;102278.56;5032567;28;20052;-80
2024/01/29 04:34:27;;;;;;;16.58;5.38;;;;;;;4.26;82.27;102276.09;5012563;28;20399;-79
2024/01/29 04:36:53;;;;;;;9.05;4.30;;;;;;;4.19;82.50;102277.31;5033024;28;20018;-81
2024/01/29 04:39:18;;;;;;;7.85;4.00;;;;;;;4.24;82.36;102278.75;5016173;28;20037;-77
2024/01/29 04:41:43;;;;;;;7.18;4.32;;;;;;;4.33;81.96;102282.56;5010831;28;20037;-79
2024/01/29 04:44:09;;;;;;;8.80;4.10;;;;;;;4.28;82.10;102282.81;5012238;28;20049;-80
2024/01/29 04:46:36;;;;;;;7.93;4.30;;;;;;;4.21;82.53;102285.78;5013242;28;20032;-81
2024/01/29 04:49:01;;;;;;;11.50;4.75;;;;;;;4.15;82.77;102289.47;5017074;28;20030;-81
2024/01/29 04:51:27;;;;;;;11.60;4.72;;;;;;;4.17;83.26;102286.84;5014562;28;20558;-80
2024/01/29 04:53:52;;;;;;;11.77;4.47;;;;;;;4.13;83.36;102288.72;5016832;28;20059;-81
2024/01/29 04:56:18;;;;;;;10.85;3.88;;;;;;;4.12;84.30;102292.19;5030661;28;20030;-80
2024/01/29 04:58:44;;;;;;;12.88;4.60;;;;;;;4.15;83.44;102298.94;5018064;28;20503;-78
2024/01/29 05:01:09;;;;;;;8.95;4.22;;;;;;;4.10;83.59;102292.25;5014803;28;20064;-81
2024/01/29 05:03:35;;;;;;;10.15;4.32;;;;;;;4.16;83.70;102298.81;5001765;28;20034;-78
2024/01/29 05:06:01;;;;;;;6.57;4.03;;;;;;;4.12;83.84;102299.91;5018047;28;20044;-80
2024/01/29 05:08:27;;;;;;;10.20;5.60;;;;;;;4.04;84.42;102299.47;5034545;28;20033;-81
2024/01/29 05:10:52;;;;;;;7.65;4.15;;;;;;;4.07;84.35;102297.56;5018028;28;20113;-78
2024/01/29 05:13:18;;;;;;;8.50;4.25;;;;;;;4.04;84.72;102294.31;5001027;28;20029;-81
2024/01/29 05:15:43;;;;;;;6.72;3.83;;;;;;;4.04;84.96;102295.16;5000366;28;20120;-80
2024/01/29 05:18:09;;;;;;;9.35;4.68;;;;;;;4.03;84.87;102284.94;5013597;28;20049;-80
2024/01/29 05:20:34;;;;;;;10.32;4.40;;;;;;;4.08;84.86;102295.81;5012458;28;20037;-79
2024/01/29 05:23:00;;;;;;;14.23;5.10;;;;;;;3.96;85.45;102296.47;5030096;28;20038;-81
2024/01/29 05:25:25;;;;;;;9.02;4.88;;;;;;;4.04;84.96;102289.19;5001409;28;20029;-81
2024/01/29 05:27:51;;;;;;;9.38;4.47;;;;;;;4.07;84.91;102287.31;4999493;28;20034;-79
2024/01/29 05:30:16;;;;;;;9.05;4.55;;;;;;;3.99;85.74;102296.28;5032159;28;20033;-81
2024/01/29 05:32:42;;;;;;;12.38;4.35;;;;;;;3.95;85.98;102303.31;5033011;28;20041;-81
2024/01/29 05:35:09;;;;;;;9.85;5.13;;;;;;;3.94;85.74;102299.09;5005443;28;20051;-80
2024/01/29 05:37:34;;;;;;;9.75;4.78;;;;;;;3.97;86.05;102300.66;5031228;28;21705;-80
2024/01/29 05:40:00;;;;;;;10.27;4.72;;;;;;;3.88;86.34;102295.09;5015982;28;20032;-80
2024/01/29 05:42:26;;;;;;;9.13;4.95;;;;;;;3.78;86.88;102299.00;5028391;28;20033;-81
2024/01/29 05:44:51;;;;;;;9.23;4.88;;;;;;;3.87;87.71;102293.41;4997733;28;20515;-81
2024/01/29 05:47:17;;;;;;;11.80;4.95;;;;;;;3.87;87.15;102293.41;5017122;28;20022;-80
2024/01/29 05:49:42;;;;;;;10.93;4.65;;;;;;;3.77;87.90;102302.50;5031156;28;20084;-80
2024/01/29 05:52:08;;;;;;;11.98;4.65;;;;;;;3.83;87.15;102301.38;5029959;28;20041;-80
2024/01/29 05:54:33;;;;;;;14.50;5.88;;;;;;;3.83;87.92;102303.94;4998270;28;20033;-80
2024/01/29 05:56:59;;;;;;;8.27;4.65;;;;;;;3.75;88.18;102304.31;5016945;28;20685;-79
2024/01/29 05:59:24;;;;;;;10.93;4.57;;;;;;;3.69;88.70;102313.13;5010567;28;20124;-80
2024/01/29 06:01:50;;;;;;;10.18;5.43;;;;;;;3.75;88.83;102308.59;5013642;28;20033;-80
2024/01/29 06:04:15;;;;;;;24.25;9.52;;;;;;;3.73;88.38;102315.53;5032101;28;20160;-81
2024/01/29 06:06:42;;;;;;;37.90;14.02;;;;;;;3.72;88.80;102319.00;4997401;28;20634;-80
2024/01/29 06:09:09;;;;;;;49.83;19.52;;;;;;;3.64;88.79;102319.38;5014165;28;20064;-80
2024/01/29 06:11:35;;;;;;;13.32;6.43;;;;;;;3.60;89.86;102325.53;5033641;28;20033;-81
2024/01/29 06:14:01;;;;;;;10.30;5.68;;;;;;;3.63;90.01;102323.66;4997503;28;20089;-80
2024/01/29 06:16:27;;;;;;;10.30;4.72;;;;;;;3.69;89.33;102319.97;5031443;28;22296;-80
2024/01/29 06:18:52;;;;;;;12.60;5.50;;;;;;;3.59;89.88;102326.47;5034720;28;20053;-79
2024/01/29 06:21:18;;;;;;;13.70;5.68;;;;;;;3.64;90.03;102320.22;5015801;28;20607;-82
2024/01/29 06:23:43;;;;;;;11.52;4.45;;;;;;;3.56;90.63;102324.88;4996716;28;20033;-80
2024/01/29 06:26:09;;;;;;;9.38;5.10;;;;;;;3.57;90.08;102334.22;5011479;28;20018;-80
2024/01/29 06:28:35;;;;;;;12.98;4.57;;;;;;;3.49;90.88;102331.22;5009420;28;20500;-81
2024/01/29 06:31:00;;;;;;;12.50;4.93;;;;;;;3.55;90.34;102320.66;4998836;28;20081;-80
2024/01/29 06:33:26;;;;;;;10.52;5.65;;;;;;;3.37;91.52;102326.63;5033198;28;20087;-80
2024/01/29 06:35:51;;;;;;;14.82;5.20;;;;;;;3.46;91.71;102331.34;5030163;28;20034;-82
2024/01/29 06:38:17;;;;;;;14.25;6.18;;;;;;;3.51;91.89;102327.66;5017793;28;20029;-80
2024/01/29 06:40:43;;;;;;;10.43;5.45;;;;;;;3.56;90.76;102327.44;5003791;28;20112;-80
2024/01/29 06:43:09;;;;;;;15.50;5.13;;;;;;;3.42;91.41;102333.22;5000199;28;20512;-80
2024/01/29 06:45:35;;;;;;;12.27;5.22;;;;;;;3.39;92.00;102330.81;5014483;28;20033;-80
2024/01/29 06:48:01;;;;;;;17.27;5.45;;;;;;;3.42;92.41;102334.97;4996012;28;20048;-81
2024/01/29 06:50:27;;;;;;;12.13;5.10;;;;;;;3.37;92.17;102334.34;5000279;28;20084;-80
2024/01/29 06:52:52;;;;;;;10.57;4.75;;;;;;;3.32;92.96;102337.13;5016689;28;20097;-81
2024/01/29 06:55:20;;;;;;;15.00;6.00;;;;;;;3.39;92.90;102346.19;5033014;28;20021;-81
2024/01/29 06:57:46;;;;;;;11.95;4.97;;;;;;;3.39;93.02;102350.47;4995652;28;20127;-79
2024/01/29 07:00:12;;;;;;;14.80;5.57;;;;;;;3.25;93.49;102351.13;5028009;28;20075;-81
2024/01/29 07:02:38;;;;;;;11.48;5.45;;;;;;;3.30;93.22;102357.69;4998961;28;20488;-80
2024/01/29 07:05:04;;;;;;;9.88;4.97;;;;;;;3.37;93.49;102359.97;5031243;28;20079;-81
2024/01/29 07:07:29;;;;;;;10.68;5.30;;;;;;;3.38;92.96;102356.53;5028171;28;20112;-81
2024/01/29 07:09:55;;;;;;;11.60;5.65;;;;;;;3.35;93.28;102357.47;5028304;28;20076;-81
2024/01/29 07:12:20;;;;;;;10.90;4.75;;;;;;;3.29;93.88;102360.34;5030006;28;20131;-81
2024/01/29 07:14:46;;;;;;;16.73;6.53;;;;;;;3.32;93.73;102360.19;5013695;28;20033;-79
2024/01/29 07:17:11;;;;;;;13.13;5.80;;;;;;;3.38;93.54;102362.47;4997515;28;20596;-81
2024/01/29 07:19:37;;;;;;;12.65;5.72;;;;;;;3.24;94.33;102364.81;4998286;28;20428;-81
2024/01/29 07:22:08;;;;;;;18.50;7.38;;;;;;;3.16;94.71;102372.06;5033875;28;20041;-81
2024/01/29 07:24:34;;;;;;;14.18;6.30;;;;;;;3.07;95.38;102376.69;5013901;28;20040;-80
2024/01/29 07:27:00;;;;;;;15.70;5.60;;;;;;;3.12;95.27;102373.91;5000928;28;20033;-81
2024/01/29 07:29:26;;;;;;;14.18;5.40;;;;;;;3.22;95.14;102380.31;5011474;28;20037;-78
2024/01/29 07:31:55;;;;;;;11.40;5.60;;;;;;;3.18;94.87;102383.88;5013560;28;20116;-80
2024/01/29 07:34:22;;;;;;;14.18;5.60;;;;;;;3.12;95.07;102384.16;5026519;28;20988;-81
2024/01/29 07:36:47;;;;;;;10.30;5.45;;;;;;;3.19;95.23;102379.63;5000360;28;20033;-81
2024/01/29 07:39:13;;;;;;;16.08;6.20;;;;;;;3.19;95.42;102385.56;5018748;28;20042;-80
2024/01/29 07:41:42;;;;;;;13.10;5.72;;;;;;;3.17;95.21;102381.41;5012193;28;20104;-81
2024/01/29 07:44:08;;;;;;;12.85;5.53;;;;;;;3.06;96.04;102389.56;5000094;28;20096;-81
2024/01/29 07:46:33;;;;;;;11.52;5.72;;;;;;;3.01;96.30;102383.81;5016335;28;20033;-80
2024/01/29 07:49:03;;;;;;;12.13;6.35;;;;;;;3.19;96.29;102380.44;5018318;28;20492;-79
2024/01/29 07:51:29;;;;;;;13.65;5.97;;;;;;;3.21;96.02;102377.81;5032157;28;20044;-79
2024/01/29 07:53:55;;;;;;;11.75;6.38;;;;;;;3.21;95.61;102370.94;4995818;28;20080;-79
2024/01/29 07:56:21;;;;;;;15.02;5.55;;;;;;;3.29;95.66;102368.03;5014075;28;20493;-78
2024/01/29 07:58:46;;;;;;;17.67;5.63;;;;;;;3.25;96.22;102376.75;5028643;28;20112;-80
2024/01/29 08:01:12;;;;;;;13.55;6.47;;;;;;;3.32;95.90;102370.47;5031650;28;20029;-80
2024/01/29 08:03:38;;;;;;;12.27;5.43;;;;;;;3.42;95.22;102374.25;5014161;28;20048;-80
2024/01/29 08:06:04;;;;;;;13.82;5.43;;;;;;;3.30;95.39;102375.66;5003513;28;20029;-81
2024/01/29 08:08:30;;;;;;;13.10;6.28;;;;;;;3.42;95.31;102376.81;5016343;28;20056;-81
2024/01/29 08:10:59;;;;;;;12.77;5.97;;;;;;;3.56;95.54;102385.59;5000371;28;20044;-80
2024/01/29 08:13:25;;;;;;;11.65;5.97;;;;;;;3.56;95.25;102393.28;5031320;28;20040;-80
2024/01/29 08:15:50;;;;;;;19.92;6.30;;;;;;;3.59;94.72;102391.41;4992016;28;20018;-79
2024/01/29 08:18:19;;;;;;;14.30;6.95;;;;;;;3.57;95.01;102392.41;5008146;28;20114;-81
2024/01/29 08:20:44;;;;;;;16.55;6.00;;;;;;;3.69;94.86;102379.84;5011069;28;20032;-80
2024/01/29 08:23:11;;;;;;;11.85;5.97;;;;;;;3.67;94.93;102386.78;5030589;28;20499;-80
2024/01/29 08:25:36;;;;;;;12.02;6.00;;;;;;;3.64;95.10;102389.47;5017846;28;20076;-80
2024/01/29 08:28:02;;;;;;;11.35;5.63;;;;;;;3.83;94.15;102388.63;4991625;28;20411;-81
2024/01/29 08:30:28;;;;;;;14.95;6.32;;;;;;;3.82;94.46;102392.91;5016620;28;20487;-80
2024/01/29 08:32:53;;;;;;;15.25;5.65;;;;;;;3.82;94.30;102392.06;5015062;28;20037;-81
2024/01/29 08:35:18;;;;;;;14.38;5.57;;;;;;;3.84;94.07;102385.13;5030660;28;20028;-80
2024/01/29 08:37:44;;;;;;;13.73;6.10;;;;;;;3.85;94.43;102386.81;5031943;28;20045;-81
2024/01/29 08:40:10;;;;;;;14.05;6.57;;;;;;;3.94;93.63;102388.94;5022529;28;20091;-80
2024/01/29 08:42:36;;;;;;;11.48;5.80;;;;;;;4.05;92.83;102389.25;5027637;28;20133;-81
2024/01/29 08:45:02;;;;;;;11.13;5.70;;;;;;;4.15;92.70;102402.47;5015164;28;20131;-80
2024/01/29 08:47:28;;;;;;;19.02;6.30;;;;;;;4.23;92.92;102404.66;5009977;28;20575;-79
2024/01/29 08:49:53;;;;;;;16.67;7.25;;;;;;;4.24;92.71;102391.72;4931807;28;20059;-80
2024/01/29 08:52:19;;;;;;;13.68;6.40;;;;;;;4.34;91.60;102397.25;4976397;28;20025;-80
2024/01/29 08:54:44;;;;;;;11.07;6.65;;;;;;;4.51;91.08;102396.41;4976736;28;20046;-79
2024/01/29 08:57:10;;;;;;;16.85;7.43;;;;;;;4.57;90.32;102401.22;4953406;28;20073;-78
2024/01/29 08:59:38;;;;;;;13.07;6.95;;;;;;;4.74;90.35;102402.94;4984460;28;20108;-79
2024/01/29 09:02:03;;;;;;;13.02;6.68;;;;;;;4.98;88.46;102407.72;4973787;28;20030;-81
2024/01/29 09:04:29;;;;;;;12.32;5.95;;;;;;;5.21;87.25;102411.66;4970647;28;20042;-79
2024/01/29 09:06:54;;;;;;;13.70;6.45;;;;;;;5.46;86.70;102406.84;4978686;28;20038;-80
2024/01/29 09:09:20;;;;;;;11.95;5.53;;;;;;;5.51;85.06;102419.47;4981776;28;20038;-79
2024/01/29 09:11:45;;;;;;;13.98;6.30;;;;;;;5.68;84.25;102415.97;4984385;28;20452;-79
2024/01/29 09:14:11;;;;;;;12.90;5.82;;;;;;;5.66;84.47;102413.47;5000468;28;20056;-79
2024/01/29 09:16:36;;;;;;;13.82;6.43;;;;;;;5.72;83.78;102419.19;4989874;28;20050;-81
2024/01/29 09:19:01;;;;;;;16.20;5.43;;;;;;;5.74;83.49;102414.78;5011911;28;20411;-81
2024/01/29 09:21:31;;;;;;;13.02;5.72;;;;;;;5.75;83.87;102416.47;5010562;28;20025;-79
2024/01/29 09:23:56;;;;;;;10.02;5.80;;;;;;;5.68;84.93;102415.13;4989196;28;20034;-80
2024/01/29 09:26:22;;;;;;;15.18;6.22;;;;;;;5.64;84.82;102412.72;4986526;28;20408;-82
2024/01/29 09:28:47;;;;;;;8.32;5.85;;;;;;;5.65;85.72;102416.13;5008668;28;20519;-81
2024/01/29 09:31:13;;;;;;;12.13;6.38;;;;;;;5.59;86.64;102421.59;5022260;28;20034;-81
2024/01/29 09:33:38;;;;;;;13.07;5.78;;;;;;;5.66;86.96;102416.03;5011451;28;20049;-81
2024/01/29 09:36:04;;;;;;;13.38;6.38;;;;;;;5.72;86.16;102404.56;4990224;28;20029;-81
2024/01/29 09:38:30;;;;;;;17.95;7.40;;;;;;;5.84;85.70;102415.97;4994632;28;20042;-82
2024/01/29 09:40:57;;;;;;;14.27;6.28;;;;;;;5.94;85.45;102416.25;5029012;28;20033;-80
2024/01/29 09:43:25;;;;;;;12.90;6.55;;;;;;;5.98;85.09;102408.28;5015294;28;20042;-81
2024/01/29 09:45:52;;;;;;;15.45;6.10;;;;;;;6.04;84.81;102410.53;4999426;28;20037;-81
2024/01/29 09:48:18;;;;;;;19.95;6.55;;;;;;;5.99;85.64;102409.97;5003795;28;20037;-80
2024/01/29 09:50:45;;;;;;;13.55;6.28;;;;;;;5.98;85.96;102413.44;5009618;28;20080;-81
2024/01/29 09:53:18;;;;;;;11.90;6.13;;;;;;;6.12;85.17;102414.41;5014468;28;20030;-80
2024/01/29 09:55:43;;;;;;;11.55;5.97;;;;;;;6.27;83.59;102408.38;5013687;28;20120;-82
2024/01/29 09:58:09;;;;;;;11.98;5.72;;;;;;;6.35;84.71;102405.38;5025702;28;20038;-79
2024/01/29 10:00:34;;;;;;;19.88;6.50;;;;;;;6.47;83.61;102412.38;4995465;28;20039;-81
2024/01/29 10:03:04;;;;;;;15.00;6.68;;;;;;;6.50;83.10;102416.50;5010193;28;20393;-81
2024/01/29 10:05:33;;;;;;;18.33;6.53;;;;;;;6.52;83.24;102415.53;5009998;28;20041;-81
2024/01/29 10:07:59;;;;;;;15.93;6.68;;;;;;;6.66;82.68;102416.47;5006298;28;20034;-81
2024/01/29 10:10:25;;;;;;;13.65;6.30;;;;;;;6.62;83.02;102413.22;5012111;28;20107;-81
2024/01/29 10:12:50;;;;;;;13.50;6.80;;;;;;;6.70;83.47;102412.78;5013649;28;20040;-81
2024/01/29 10:15:16;;;;;;;11.65;5.65;;;;;;;6.83;82.55;102416.28;5012155;28;20400;-80
2024/01/29 10:17:42;;;;;;;14.77;6.03;;;;;;;6.95;81.94;102412.13;5012274;28;20026;-81
2024/01/29 10:20:20;;;;;;;17.55;7.53;;;;;;;6.97;81.12;102416.28;5008197;28;20390;-81
2024/01/29 10:22:46;;;;;;;15.82;6.85;;;;;;;7.17;80.12;102420.22;5015239;28;20408;-80
2024/01/29 10:25:13;;;;;;;12.32;6.82;;;;;;;7.22;80.59;102419.94;5029649;28;20043;-81
2024/01/29 10:27:39;;;;;;;15.02;6.68;;;;;;;7.23;80.06;102419.00;5009629;28;20021;-81
2024/01/29 10:30:06;;;;;;;17.20;6.68;;;;;;;7.38;79.53;102423.25;5001687;28;20161;-82
2024/01/29 10:32:31;;;;;;;20.77;7.40;;;;;;;7.42;79.91;102423.84;5010205;28;20718;-81
2024/01/29 10:34:57;;;;;;;15.05;6.60;;;;;;;7.42;80.50;102416.09;5010326;28;20029;-80
2024/01/29 10:37:26;;;;;;;15.25;6.90;;;;;;;7.53;80.31;102418.03;5006612;28;20036;-80
2024/01/29 10:39:54;;;;;;;16.73;6.35;;;;;;;7.64;79.07;102409.59;5008655;28;20056;-82
2024/01/29 10:42:20;;;;;;;13.65;7.05;;;;;;;7.55;80.16;102418.75;5012308;28;20583;-80
2024/01/29 10:44:46;;;;;;;13.43;6.93;;;;;;;7.50;80.72;102418.22;5030740;28;20605;-82
2024/01/29 10:47:29;;;;;;;13.48;6.50;;;;;;;7.64;81.75;102425.09;5011362;28;20041;-80
2024/01/29 10:49:56;;;;;;;;;;;;;;;7.54;81.92;102419.69;5027450;28;20037;-81
2024/01/29 10:52:23;;;;;;;14.48;7.30;;;;;;;7.73;82.61;102412.44;5026681;28;19919;-81
2024/01/29 10:54:49;;;;;;;17.42;6.80;;;;;;;7.77;81.37;102407.91;5010926;28;20122;-81
2024/01/29 10:57:15;;;;;;;16.23;7.82;;;;;;;7.90;80.57;102411.34;4993537;28;20038;-82
2024/01/29 10:59:42;;;;;;;11.40;6.88;;;;;;;8.03;79.51;102406.22;5011042;28;20132;-81
2024/01/29 11:02:12;;;;;;;13.25;6.80;;;;;;;7.88;81.11;102410.63;5012638;28;20029;-81
2024/01/29 11:04:38;;;;;;;17.17;7.40;;;;;;;7.90;80.45;102408.75;5014089;28;20037;-80
2024/01/29 11:07:16;;;;;;;18.00;8.32;;;;;;;8.15;80.26;102407.97;4993839;28;20649;-81
2024/01/29 11:09:55;;;;;;;15.10;8.05;;;;;;;8.15;79.46;102407.97;5006466;28;20421;-79
2024/01/29 11:12:21;;;;;;;13.20;7.30;;;;;;;8.04;81.27;102410.44;5010959;28;20029;-79
2024/01/29 11:15:00;;;;;;;18.85;6.88;;;;;;;8.19;80.06;102404.28;4998208;28;20034;-81
2024/01/29 11:17:27;;;;;;;16.35;7.35;;;;;;;8.24;80.51;102406.56;5025190;28;20041;-81
2024/01/29 11:19:53;;;;;;;16.67;8.32;;;;;;;8.29;80.12;102407.09;5005721;28;20034;-81
2024/01/29 11:22:18;;;;;;;16.33;7.47;;;;;;;8.29;81.18;102406.28;5010489;28;20045;-80
2024/01/29 11:24:44;;;;;;;19.40;7.30;;;;;;;8.26;81.88;102404.69;5011776;28;20041;-81